LAN2012 WSSS-RCTP
Flight info
| Callsign | LAN2012 |
|---|---|
| Flight time | 3h 36m |
| Altitude | 37000 |
| Route | VMR6A VMR M771 DUDIS/K0885F370 M771 DOSUT M771 DULOP DCT ENVAR M750 TONGA TONGA1A |
| Aircraft | B772/H-SDE2E3FGHIJ5LORVWXY/LB1D1 |
Departure
| Time | 2026-05-04 23:16 |
|---|---|
| Airport | Singapore Changi Airport (WSSS) |
Arrival
| Time | 2026-05-05 02:52 |
|---|---|
| Airport | Taiwan Taoyuan International Airport (RCTP) |
| Time | Latitude | Longitude | Altitude | Speed | Heading |
|---|---|---|---|---|---|
| 2026-05-04 22:43 | 1.34916 | 103.98168 | 41 ft | 0 kts | 71° |
| 2026-05-04 22:57 | 1.34913 | 103.98159 | 41 ft | 2 kts | 71° |
| 2026-05-04 22:57 | 1.34908 | 103.98144 | 40 ft | 2 kts | 71° |
| 2026-05-04 22:57 | 1.34903 | 103.98131 | 40 ft | 2 kts | 71° |
| 2026-05-04 22:58 | 1.34899 | 103.98116 | 40 ft | 2 kts | 80° |
| 2026-05-04 22:58 | 1.34899 | 103.98101 | 40 ft | 2 kts | 102° |
| 2026-05-04 22:58 | 1.34903 | 103.98087 | 39 ft | 2 kts | 120° |
| 2026-05-04 22:58 | 1.34912 | 103.98075 | 39 ft | 2 kts | 138° |
| 2026-05-04 22:59 | 1.34925 | 103.98067 | 39 ft | 2 kts | 156° |
| 2026-05-04 22:59 | 1.34939 | 103.98062 | 39 ft | 2 kts | 175° |
| 2026-05-04 22:59 | 1.34954 | 103.98063 | 39 ft | 2 kts | 193° |
| 2026-05-04 22:59 | 1.34962 | 103.98065 | 39 ft | 1 kts | 202° |
| 2026-05-04 23:00 | 1.34964 | 103.98066 | 39 ft | 0 kts | 201° |
| 2026-05-04 23:02 | 1.34963 | 103.98066 | 39 ft | 0 kts | 201° |
| 2026-05-04 23:06 | 1.34962 | 103.98065 | 39 ft | 1 kts | 201° |
| 2026-05-04 23:06 | 1.34947 | 103.98059 | 39 ft | 3 kts | 200° |
| 2026-05-04 23:06 | 1.34921 | 103.98050 | 39 ft | 4 kts | 200° |
| 2026-05-04 23:07 | 1.34892 | 103.98038 | 40 ft | 4 kts | 202° |
| 2026-05-04 23:07 | 1.34860 | 103.98025 | 40 ft | 5 kts | 202° |
| 2026-05-04 23:07 | 1.34823 | 103.98019 | 40 ft | 6 kts | 173° |
| 2026-05-04 23:07 | 1.34785 | 103.98051 | 40 ft | 8 kts | 120° |
| 2026-05-04 23:08 | 1.34757 | 103.98111 | 39 ft | 10 kts | 112° |
| 2026-05-04 23:08 | 1.34729 | 103.98177 | 41 ft | 10 kts | 113° |
| 2026-05-04 23:08 | 1.34702 | 103.98241 | 42 ft | 9 kts | 113° |
| 2026-05-04 23:08 | 1.34675 | 103.98304 | 43 ft | 9 kts | 113° |
| 2026-05-04 23:09 | 1.34647 | 103.98370 | 43 ft | 11 kts | 113° |
| 2026-05-04 23:09 | 1.34610 | 103.98456 | 43 ft | 15 kts | 113° |
| 2026-05-04 23:09 | 1.34563 | 103.98566 | 42 ft | 18 kts | 113° |
| 2026-05-04 23:09 | 1.34511 | 103.98689 | 41 ft | 19 kts | 113° |
| 2026-05-04 23:10 | 1.34459 | 103.98810 | 40 ft | 17 kts | 112° |
| 2026-05-04 23:10 | 1.34415 | 103.98906 | 39 ft | 11 kts | 127° |
| 2026-05-04 23:10 | 1.34338 | 103.98916 | 38 ft | 13 kts | 195° |
| 2026-05-04 23:10 | 1.34245 | 103.98878 | 36 ft | 15 kts | 205° |
| 2026-05-04 23:11 | 1.34141 | 103.98834 | 34 ft | 17 kts | 202° |
| 2026-05-04 23:11 | 1.34031 | 103.98788 | 35 ft | 16 kts | 203° |
| 2026-05-04 23:11 | 1.33923 | 103.98741 | 36 ft | 16 kts | 204° |
| 2026-05-04 23:11 | 1.33811 | 103.98694 | 34 ft | 18 kts | 203° |
| 2026-05-04 23:12 | 1.33693 | 103.98645 | 35 ft | 18 kts | 203° |
| 2026-05-04 23:12 | 1.33574 | 103.98594 | 35 ft | 18 kts | 203° |
| 2026-05-04 23:12 | 1.33457 | 103.98545 | 36 ft | 17 kts | 203° |
| 2026-05-04 23:12 | 1.33344 | 103.98498 | 38 ft | 17 kts | 203° |
| 2026-05-04 23:13 | 1.33235 | 103.98451 | 39 ft | 16 kts | 203° |
| 2026-05-04 23:13 | 1.33129 | 103.98407 | 39 ft | 16 kts | 203° |
| 2026-05-04 23:13 | 1.33036 | 103.98367 | 40 ft | 11 kts | 203° |
| 2026-05-04 23:13 | 1.32958 | 103.98334 | 39 ft | 13 kts | 202° |
| 2026-05-04 23:14 | 1.32891 | 103.98309 | 38 ft | 9 kts | 190° |
| 2026-05-04 23:14 | 1.32851 | 103.98320 | 38 ft | 6 kts | 135° |
| 2026-05-04 23:14 | 1.32830 | 103.98366 | 37 ft | 8 kts | 92° |
| 2026-05-04 23:14 | 1.32843 | 103.98417 | 38 ft | 6 kts | 70° |
| 2026-05-04 23:15 | 1.32865 | 103.98463 | 37 ft | 8 kts | 54° |
| 2026-05-04 23:15 | 1.32910 | 103.98505 | 37 ft | 10 kts | 32° |
| 2026-05-04 23:15 | 1.33155 | 103.98616 | 36 ft | 79 kts | 22° |
| 2026-05-04 23:15 | 1.33917 | 103.98937 | 35 ft | 155 kts | 23° |
| 2026-05-04 23:16 | 1.35101 | 103.99435 | 110 ft | 210 kts | 23° |
| 2026-05-04 23:16 | 1.36509 | 104.00027 | 763 ft | 222 kts | 22° |
| 2026-05-04 23:16 | 1.37906 | 104.00587 | 1973 ft | 214 kts | 24° |
| 2026-05-04 23:16 | 1.39289 | 104.01191 | 2455 ft | 225 kts | 24° |
| 2026-05-04 23:17 | 1.40792 | 104.01840 | 2896 ft | 240 kts | 23° |
| 2026-05-04 23:17 | 1.42370 | 104.02509 | 3378 ft | 255 kts | 23° |
| 2026-05-04 23:17 | 1.44032 | 104.03211 | 4080 ft | 260 kts | 23° |
| 2026-05-04 23:17 | 1.45707 | 104.03919 | 4876 ft | 261 kts | 23° |
| 2026-05-04 23:18 | 1.47397 | 104.04627 | 5601 ft | 265 kts | 20° |
| 2026-05-04 23:18 | 1.49182 | 104.04917 | 6316 ft | 267 kts | 356° |
| 2026-05-04 23:18 | 1.50997 | 104.04437 | 6938 ft | 273 kts | 336° |
| 2026-05-04 23:18 | 1.52701 | 104.03574 | 7585 ft | 279 kts | 332° |
| 2026-05-04 23:19 | 1.54447 | 104.02624 | 8165 ft | 287 kts | 332° |
| 2026-05-04 23:19 | 1.56208 | 104.01667 | 8803 ft | 291 kts | 332° |
| 2026-05-04 23:19 | 1.57984 | 104.00706 | 9442 ft | 296 kts | 333° |
| 2026-05-04 23:19 | 1.59810 | 103.99720 | 10083 ft | 300 kts | 333° |
| 2026-05-04 23:20 | 1.61698 | 103.98702 | 10460 ft | 316 kts | 333° |
| 2026-05-04 23:20 | 1.63702 | 103.97622 | 10812 ft | 332 kts | 333° |
| 2026-05-04 23:20 | 1.65785 | 103.96498 | 11144 ft | 347 kts | 333° |
| 2026-05-04 23:20 | 1.67959 | 103.95325 | 11468 ft | 362 kts | 333° |
| 2026-05-04 23:21 | 1.70250 | 103.94089 | 11802 ft | 376 kts | 333° |
| 2026-05-04 23:21 | 1.72583 | 103.92831 | 12129 ft | 389 kts | 333° |
| 2026-05-04 23:21 | 1.75096 | 103.91719 | 12638 ft | 394 kts | 343° |
| 2026-05-04 23:21 | 1.77771 | 103.91105 | 13210 ft | 396 kts | 354° |
| 2026-05-04 23:22 | 1.80567 | 103.90869 | 13810 ft | 399 kts | 358° |
| 2026-05-04 23:22 | 1.83336 | 103.90694 | 14420 ft | 402 kts | 358° |
| 2026-05-04 23:22 | 1.86147 | 103.90517 | 15025 ft | 404 kts | 358° |
| 2026-05-04 23:22 | 1.88982 | 103.90339 | 15617 ft | 407 kts | 358° |
| 2026-05-04 23:23 | 1.91806 | 103.90160 | 16183 ft | 411 kts | 358° |
| 2026-05-04 23:23 | 1.94702 | 103.89977 | 16753 ft | 414 kts | 358° |
| 2026-05-04 23:23 | 1.97598 | 103.89793 | 17310 ft | 417 kts | 359° |
| 2026-05-04 23:23 | 2.00522 | 103.89607 | 17858 ft | 420 kts | 359° |
| 2026-05-04 23:24 | 2.03432 | 103.89423 | 18368 ft | 424 kts | 359° |
| 2026-05-04 23:24 | 2.06416 | 103.89233 | 18888 ft | 427 kts | 359° |
| 2026-05-04 23:24 | 2.09386 | 103.89043 | 19396 ft | 431 kts | 359° |
| 2026-05-04 23:24 | 2.12390 | 103.88852 | 19895 ft | 434 kts | 359° |
| 2026-05-04 23:25 | 2.15452 | 103.88657 | 20392 ft | 438 kts | 358° |
| 2026-05-04 23:25 | 2.18498 | 103.88464 | 20859 ft | 441 kts | 358° |
| 2026-05-04 23:25 | 2.21558 | 103.88268 | 21332 ft | 445 kts | 358° |
| 2026-05-04 23:25 | 2.24669 | 103.88070 | 21808 ft | 448 kts | 358° |
| 2026-05-04 23:26 | 2.27814 | 103.87870 | 22268 ft | 451 kts | 358° |
| 2026-05-04 23:26 | 2.30986 | 103.87668 | 22726 ft | 455 kts | 359° |
| 2026-05-04 23:26 | 2.34155 | 103.87530 | 23170 ft | 457 kts | 3° |
| 2026-05-04 23:26 | 2.37327 | 103.87843 | 23586 ft | 458 kts | 13° |
| 2026-05-04 23:27 | 2.40421 | 103.88678 | 24025 ft | 458 kts | 22° |
| 2026-05-04 23:27 | 2.43326 | 103.90005 | 24461 ft | 458 kts | 31° |
| 2026-05-04 23:27 | 2.46054 | 103.91644 | 24899 ft | 460 kts | 34° |
| 2026-05-04 23:27 | 2.48783 | 103.93344 | 25294 ft | 464 kts | 34° |
| 2026-05-04 23:28 | 2.51539 | 103.95062 | 25694 ft | 467 kts | 34° |
| 2026-05-04 23:28 | 2.54329 | 103.96802 | 26104 ft | 470 kts | 34° |
| 2026-05-04 23:28 | 2.57107 | 103.98533 | 26457 ft | 473 kts | 33° |
| 2026-05-04 23:28 | 2.59892 | 104.00268 | 26804 ft | 477 kts | 33° |
| 2026-05-04 23:29 | 2.62765 | 104.02057 | 27152 ft | 480 kts | 33° |
| 2026-05-04 23:29 | 2.65589 | 104.03816 | 27489 ft | 483 kts | 33° |
| 2026-05-04 23:29 | 2.68463 | 104.05605 | 27827 ft | 486 kts | 33° |
| 2026-05-04 23:29 | 2.71351 | 104.07403 | 28159 ft | 489 kts | 33° |
| 2026-05-04 23:30 | 2.74287 | 104.09231 | 28498 ft | 492 kts | 33° |
| 2026-05-04 23:30 | 2.77208 | 104.11050 | 28846 ft | 494 kts | 33° |
| 2026-05-04 23:30 | 2.80138 | 104.12875 | 29299 ft | 495 kts | 33° |
| 2026-05-04 23:30 | 2.83031 | 104.14675 | 29871 ft | 492 kts | 33° |
| 2026-05-04 23:31 | 2.85951 | 104.16493 | 30482 ft | 488 kts | 33° |
| 2026-05-04 23:31 | 2.88810 | 104.18274 | 31008 ft | 487 kts | 32° |
| 2026-05-04 23:31 | 2.91680 | 104.20061 | 31481 ft | 486 kts | 32° |
| 2026-05-04 23:31 | 2.94564 | 104.21858 | 31942 ft | 485 kts | 32° |
| 2026-05-04 23:32 | 2.97423 | 104.23638 | 32403 ft | 484 kts | 32° |
| 2026-05-04 23:32 | 3.00337 | 104.25453 | 32898 ft | 482 kts | 32° |
| 2026-05-04 23:32 | 3.03192 | 104.27232 | 33439 ft | 480 kts | 32° |
| 2026-05-04 23:32 | 3.06047 | 104.29011 | 33995 ft | 478 kts | 32° |
| 2026-05-04 23:33 | 3.08839 | 104.30776 | 34536 ft | 476 kts | 33° |
| 2026-05-04 23:33 | 3.11635 | 104.32553 | 35079 ft | 473 kts | 33° |
| 2026-05-04 23:33 | 3.14434 | 104.34326 | 35611 ft | 470 kts | 33° |
| 2026-05-04 23:33 | 3.17184 | 104.36036 | 36052 ft | 469 kts | 33° |
| 2026-05-04 23:34 | 3.19963 | 104.37759 | 36389 ft | 469 kts | 33° |
| 2026-05-04 23:34 | 3.22763 | 104.39496 | 36685 ft | 469 kts | 33° |
| 2026-05-04 23:34 | 3.25540 | 104.41219 | 36859 ft | 470 kts | 33° |
| 2026-05-04 23:34 | 3.28356 | 104.42966 | 36857 ft | 473 kts | 33° |
| 2026-05-04 23:35 | 3.33975 | 104.46455 | 36855 ft | 481 kts | 33° |
| 2026-05-04 23:35 | 3.39708 | 104.50015 | 36852 ft | 488 kts | 33° |
| 2026-05-04 23:36 | 3.45516 | 104.53622 | 36848 ft | 495 kts | 33° |
| 2026-05-04 23:36 | 3.51441 | 104.57304 | 36846 ft | 500 kts | 33° |
| 2026-05-04 23:37 | 3.57360 | 104.60982 | 36842 ft | 503 kts | 33° |
| 2026-05-04 23:37 | 3.63347 | 104.64703 | 36841 ft | 504 kts | 33° |
| 2026-05-04 23:38 | 3.69340 | 104.68429 | 36843 ft | 505 kts | 33° |
| 2026-05-04 23:38 | 3.75294 | 104.72131 | 36843 ft | 505 kts | 33° |
| 2026-05-04 23:39 | 3.81269 | 104.75846 | 36844 ft | 505 kts | 33° |
| 2026-05-04 23:39 | 3.87293 | 104.79594 | 36843 ft | 505 kts | 33° |
| 2026-05-04 23:40 | 3.93248 | 104.83300 | 36843 ft | 505 kts | 33° |
| 2026-05-04 23:40 | 3.99237 | 104.87027 | 36848 ft | 505 kts | 33° |
| 2026-05-04 23:41 | 4.05263 | 104.90779 | 36858 ft | 505 kts | 33° |
| 2026-05-04 23:41 | 4.11230 | 104.94494 | 36863 ft | 506 kts | 33° |
| 2026-05-04 23:42 | 4.17243 | 104.98238 | 36863 ft | 506 kts | 33° |
| 2026-05-04 23:42 | 4.23224 | 105.01962 | 36862 ft | 505 kts | 33° |
| 2026-05-04 23:43 | 4.29250 | 105.05705 | 36863 ft | 505 kts | 33° |
| 2026-05-04 23:43 | 4.35223 | 105.09416 | 36863 ft | 506 kts | 33° |
| 2026-05-04 23:44 | 4.41227 | 105.13147 | 36863 ft | 506 kts | 33° |
| 2026-05-04 23:44 | 4.47224 | 105.16876 | 36862 ft | 506 kts | 33° |
| 2026-05-04 23:45 | 4.53210 | 105.20596 | 36862 ft | 505 kts | 33° |
| 2026-05-04 23:45 | 4.59232 | 105.24342 | 36862 ft | 505 kts | 33° |
| 2026-05-04 23:46 | 4.65234 | 105.28075 | 36861 ft | 505 kts | 33° |
| 2026-05-04 23:46 | 4.71214 | 105.31795 | 36862 ft | 505 kts | 33° |
| 2026-05-04 23:47 | 4.77209 | 105.35525 | 36861 ft | 506 kts | 33° |
| 2026-05-04 23:47 | 4.83225 | 105.39295 | 36860 ft | 506 kts | 34° |
| 2026-05-04 23:48 | 4.89140 | 105.43153 | 36861 ft | 506 kts | 34° |
| 2026-05-04 23:48 | 4.95084 | 105.47033 | 36861 ft | 506 kts | 34° |
| 2026-05-04 23:49 | 5.00958 | 105.50863 | 36861 ft | 505 kts | 34° |
| 2026-05-04 23:49 | 5.06903 | 105.54737 | 36860 ft | 505 kts | 34° |
| 2026-05-04 23:50 | 5.12812 | 105.58587 | 36860 ft | 504 kts | 34° |
| 2026-05-04 23:50 | 5.18709 | 105.62429 | 36860 ft | 505 kts | 34° |
| 2026-05-04 23:51 | 5.24633 | 105.66290 | 36863 ft | 505 kts | 34° |
| 2026-05-04 23:51 | 5.30526 | 105.70131 | 36861 ft | 504 kts | 34° |
| 2026-05-04 23:52 | 5.36421 | 105.73973 | 36857 ft | 503 kts | 34° |
| 2026-05-04 23:52 | 5.42309 | 105.77813 | 36849 ft | 503 kts | 34° |
| 2026-05-04 23:53 | 5.48167 | 105.81633 | 36846 ft | 503 kts | 34° |
| 2026-05-04 23:53 | 5.54078 | 105.85489 | 36848 ft | 503 kts | 34° |
| 2026-05-04 23:54 | 5.59975 | 105.89337 | 36859 ft | 503 kts | 34° |
| 2026-05-04 23:54 | 5.65863 | 105.93179 | 36863 ft | 503 kts | 34° |
| 2026-05-04 23:55 | 5.71732 | 105.97011 | 36863 ft | 502 kts | 34° |
| 2026-05-04 23:56 | 5.80551 | 106.02769 | 36862 ft | 501 kts | 34° |
| 2026-05-04 23:56 | 5.86410 | 106.06596 | 36865 ft | 501 kts | 34° |
| 2026-05-04 23:57 | 5.92259 | 106.10419 | 36860 ft | 502 kts | 34° |
| 2026-05-04 23:57 | 5.98153 | 106.14271 | 36863 ft | 501 kts | 34° |
| 2026-05-04 23:58 | 6.04002 | 106.18094 | 36861 ft | 501 kts | 34° |
| 2026-05-04 23:58 | 6.09843 | 106.21913 | 36862 ft | 501 kts | 34° |
| 2026-05-04 23:59 | 6.15697 | 106.25742 | 36864 ft | 501 kts | 34° |
| 2026-05-04 23:59 | 6.21552 | 106.29572 | 36863 ft | 500 kts | 34° |
| 2026-05-05 00:00 | 6.27401 | 106.33400 | 36862 ft | 499 kts | 34° |
| 2026-05-05 00:00 | 6.33226 | 106.37213 | 36862 ft | 499 kts | 34° |
| 2026-05-05 00:01 | 6.39070 | 106.41039 | 36862 ft | 500 kts | 34° |
| 2026-05-05 00:01 | 6.44914 | 106.44867 | 36862 ft | 501 kts | 34° |
| 2026-05-05 00:02 | 6.50815 | 106.48733 | 36861 ft | 500 kts | 34° |
| 2026-05-05 00:02 | 6.56653 | 106.52559 | 36860 ft | 500 kts | 34° |
| 2026-05-05 00:03 | 6.62492 | 106.56387 | 36867 ft | 500 kts | 34° |
| 2026-05-05 00:03 | 6.68339 | 106.60220 | 36874 ft | 500 kts | 34° |
| 2026-05-05 00:04 | 6.74198 | 106.64063 | 36873 ft | 501 kts | 34° |
| 2026-05-05 00:04 | 6.80016 | 106.67880 | 36881 ft | 500 kts | 34° |
| 2026-05-05 00:05 | 6.85881 | 106.71729 | 36879 ft | 501 kts | 34° |
| 2026-05-05 00:05 | 6.91735 | 106.75572 | 36881 ft | 500 kts | 34° |
| 2026-05-05 00:06 | 6.97618 | 106.79435 | 36883 ft | 501 kts | 34° |
| 2026-05-05 00:06 | 7.03452 | 106.83269 | 36882 ft | 501 kts | 34° |
| 2026-05-05 00:07 | 7.09294 | 106.87112 | 36874 ft | 499 kts | 34° |
| 2026-05-05 00:07 | 7.15118 | 106.90945 | 36868 ft | 499 kts | 34° |
| 2026-05-05 00:08 | 7.20935 | 106.94775 | 36877 ft | 499 kts | 34° |
| 2026-05-05 00:08 | 7.26762 | 106.98612 | 36884 ft | 499 kts | 34° |
| 2026-05-05 00:09 | 7.32621 | 107.02471 | 36882 ft | 499 kts | 34° |
| 2026-05-05 00:09 | 7.38441 | 107.06306 | 36880 ft | 500 kts | 34° |
| 2026-05-05 00:10 | 7.44268 | 107.10146 | 36871 ft | 500 kts | 34° |
| 2026-05-05 00:10 | 7.50134 | 107.14014 | 36863 ft | 500 kts | 34° |
| 2026-05-05 00:11 | 7.55936 | 107.17840 | 36862 ft | 500 kts | 34° |
| 2026-05-05 00:11 | 7.61784 | 107.21699 | 36862 ft | 500 kts | 34° |
| 2026-05-05 00:12 | 7.67605 | 107.25540 | 36862 ft | 500 kts | 34° |
| 2026-05-05 00:12 | 7.73415 | 107.29376 | 36862 ft | 500 kts | 34° |
| 2026-05-05 00:13 | 7.79259 | 107.33235 | 36861 ft | 501 kts | 34° |
| 2026-05-05 00:13 | 7.85103 | 107.37096 | 36862 ft | 500 kts | 34° |
| 2026-05-05 00:14 | 7.90924 | 107.40942 | 36861 ft | 499 kts | 34° |
| 2026-05-05 00:14 | 7.96739 | 107.44786 | 36860 ft | 499 kts | 34° |
| 2026-05-05 00:15 | 8.02572 | 107.48644 | 36860 ft | 500 kts | 34° |
| 2026-05-05 00:15 | 8.08439 | 107.52525 | 36859 ft | 500 kts | 34° |
| 2026-05-05 00:16 | 8.14249 | 107.56370 | 36862 ft | 499 kts | 34° |
| 2026-05-05 00:16 | 8.20056 | 107.60214 | 36862 ft | 500 kts | 34° |
| 2026-05-05 00:17 | 8.25902 | 107.64086 | 36860 ft | 499 kts | 33° |
| 2026-05-05 00:17 | 8.31731 | 107.67947 | 36863 ft | 498 kts | 34° |
| 2026-05-05 00:18 | 8.37514 | 107.71780 | 36866 ft | 498 kts | 34° |
| 2026-05-05 00:18 | 8.43319 | 107.75629 | 36868 ft | 499 kts | 34° |
| 2026-05-05 00:19 | 8.49144 | 107.79491 | 36873 ft | 499 kts | 33° |
| 2026-05-05 00:19 | 8.54944 | 107.83340 | 36871 ft | 499 kts | 33° |
| 2026-05-05 00:20 | 8.60762 | 107.87201 | 36873 ft | 498 kts | 33° |
| 2026-05-05 00:20 | 8.66558 | 107.91049 | 36875 ft | 498 kts | 33° |
| 2026-05-05 00:21 | 8.72358 | 107.94902 | 36874 ft | 499 kts | 33° |
| 2026-05-05 00:21 | 8.78160 | 107.98756 | 36873 ft | 498 kts | 33° |
| 2026-05-05 00:22 | 8.84002 | 108.02640 | 36873 ft | 499 kts | 33° |
| 2026-05-05 00:22 | 8.89798 | 108.06494 | 36882 ft | 500 kts | 33° |
| 2026-05-05 00:23 | 8.95609 | 108.10359 | 36881 ft | 499 kts | 33° |
| 2026-05-05 00:23 | 9.01429 | 108.14233 | 36883 ft | 500 kts | 33° |
| 2026-05-05 00:24 | 9.07237 | 108.18099 | 36884 ft | 499 kts | 33° |
| 2026-05-05 00:24 | 9.13071 | 108.21984 | 36885 ft | 499 kts | 33° |
| 2026-05-05 00:25 | 9.18906 | 108.25871 | 36886 ft | 500 kts | 33° |
| 2026-05-05 00:25 | 9.24709 | 108.29739 | 36886 ft | 500 kts | 33° |
| 2026-05-05 00:26 | 9.30556 | 108.33638 | 36883 ft | 501 kts | 33° |
| 2026-05-05 00:26 | 9.36354 | 108.37505 | 36885 ft | 501 kts | 33° |
| 2026-05-05 00:27 | 9.42258 | 108.41445 | 36878 ft | 506 kts | 33° |
| 2026-05-05 00:27 | 9.48108 | 108.45351 | 36875 ft | 503 kts | 33° |
| 2026-05-05 00:28 | 9.53956 | 108.49254 | 36876 ft | 503 kts | 33° |
| 2026-05-05 00:28 | 9.59858 | 108.53194 | 36875 ft | 504 kts | 33° |
| 2026-05-05 00:29 | 9.65698 | 108.57094 | 36866 ft | 503 kts | 33° |
| 2026-05-05 00:29 | 9.71579 | 108.61024 | 36860 ft | 507 kts | 33° |
| 2026-05-05 00:30 | 9.77442 | 108.64943 | 36860 ft | 504 kts | 33° |
| 2026-05-05 00:30 | 9.83321 | 108.68875 | 36864 ft | 503 kts | 33° |
| 2026-05-05 00:31 | 9.89163 | 108.72784 | 36864 ft | 508 kts | 33° |
| 2026-05-05 00:31 | 9.95068 | 108.76736 | 36866 ft | 504 kts | 33° |
| 2026-05-05 00:32 | 10.00954 | 108.80677 | 36861 ft | 507 kts | 33° |
| 2026-05-05 00:32 | 10.06852 | 108.84624 | 36863 ft | 504 kts | 33° |
| 2026-05-05 00:33 | 10.12721 | 108.88552 | 36869 ft | 505 kts | 33° |
| 2026-05-05 00:33 | 10.18585 | 108.92480 | 36867 ft | 507 kts | 33° |
| 2026-05-05 00:34 | 10.24483 | 108.96431 | 36869 ft | 504 kts | 33° |
| 2026-05-05 00:34 | 10.30341 | 109.00358 | 36872 ft | 504 kts | 33° |
| 2026-05-05 00:35 | 10.36215 | 109.04298 | 36880 ft | 505 kts | 33° |
| 2026-05-05 00:35 | 10.42095 | 109.08243 | 36883 ft | 506 kts | 33° |
| 2026-05-05 00:36 | 10.47981 | 109.12193 | 36884 ft | 506 kts | 33° |
| 2026-05-05 00:36 | 10.53896 | 109.16165 | 36883 ft | 505 kts | 33° |
| 2026-05-05 00:37 | 10.59766 | 109.20110 | 36884 ft | 508 kts | 33° |
| 2026-05-05 00:37 | 10.65645 | 109.24062 | 36883 ft | 504 kts | 33° |
| 2026-05-05 00:38 | 10.71555 | 109.28036 | 36884 ft | 509 kts | 33° |
| 2026-05-05 00:38 | 10.77475 | 109.32019 | 36883 ft | 507 kts | 33° |
| 2026-05-05 00:39 | 10.83369 | 109.35986 | 36883 ft | 508 kts | 33° |
| 2026-05-05 00:39 | 10.89282 | 109.39969 | 36884 ft | 507 kts | 33° |
| 2026-05-05 00:40 | 10.95187 | 109.43948 | 36883 ft | 508 kts | 32° |
| 2026-05-05 00:40 | 11.01088 | 109.47926 | 36883 ft | 507 kts | 33° |
| 2026-05-05 00:41 | 11.06997 | 109.51911 | 36885 ft | 507 kts | 32° |
| 2026-05-05 00:41 | 11.12879 | 109.55866 | 36891 ft | 508 kts | 32° |
| 2026-05-05 00:42 | 11.18848 | 109.59793 | 36897 ft | 508 kts | 32° |
| 2026-05-05 00:42 | 11.24795 | 109.63708 | 36905 ft | 508 kts | 32° |
| 2026-05-05 00:43 | 11.30777 | 109.67651 | 36904 ft | 507 kts | 32° |
| 2026-05-05 00:43 | 11.36717 | 109.71569 | 36906 ft | 509 kts | 32° |
| 2026-05-05 00:44 | 11.42678 | 109.75504 | 36906 ft | 512 kts | 32° |
| 2026-05-05 00:44 | 11.48667 | 109.79459 | 36907 ft | 508 kts | 32° |
| 2026-05-05 00:45 | 11.54614 | 109.83390 | 36906 ft | 509 kts | 32° |
| 2026-05-05 00:45 | 11.60558 | 109.87320 | 36907 ft | 509 kts | 32° |
| 2026-05-05 00:46 | 11.66526 | 109.91269 | 36905 ft | 509 kts | 32° |
| 2026-05-05 00:46 | 11.72460 | 109.95197 | 36906 ft | 512 kts | 32° |
| 2026-05-05 00:47 | 11.78460 | 109.99171 | 36905 ft | 510 kts | 32° |
| 2026-05-05 00:47 | 11.84439 | 110.03133 | 36905 ft | 512 kts | 32° |
| 2026-05-05 00:48 | 11.90415 | 110.07095 | 36903 ft | 512 kts | 32° |
| 2026-05-05 00:48 | 11.96433 | 110.11087 | 36903 ft | 511 kts | 32° |
| 2026-05-05 00:49 | 12.02374 | 110.15031 | 36906 ft | 511 kts | 32° |
| 2026-05-05 00:49 | 12.08354 | 110.19002 | 36907 ft | 510 kts | 32° |
| 2026-05-05 00:50 | 12.14350 | 110.22985 | 36910 ft | 510 kts | 32° |
| 2026-05-05 00:50 | 12.20290 | 110.26935 | 36914 ft | 510 kts | 32° |
| 2026-05-05 00:51 | 12.26273 | 110.30914 | 36917 ft | 510 kts | 32° |
| 2026-05-05 00:51 | 12.32207 | 110.34863 | 36919 ft | 510 kts | 32° |
| 2026-05-05 00:52 | 12.38178 | 110.38853 | 36918 ft | 511 kts | 32° |
| 2026-05-05 00:52 | 12.44067 | 110.42963 | 36916 ft | 510 kts | 33° |
| 2026-05-05 00:53 | 12.49933 | 110.47067 | 36915 ft | 510 kts | 33° |
| 2026-05-05 00:53 | 12.55802 | 110.51170 | 36911 ft | 510 kts | 32° |
| 2026-05-05 00:54 | 12.61683 | 110.55280 | 36908 ft | 510 kts | 32° |
| 2026-05-05 00:54 | 12.67556 | 110.59384 | 36905 ft | 510 kts | 33° |
| 2026-05-05 00:55 | 12.73446 | 110.63502 | 36912 ft | 510 kts | 32° |
| 2026-05-05 00:55 | 12.79296 | 110.67593 | 36908 ft | 510 kts | 33° |
| 2026-05-05 00:56 | 12.85164 | 110.71699 | 36909 ft | 510 kts | 33° |
| 2026-05-05 00:56 | 12.91069 | 110.75833 | 36907 ft | 511 kts | 32° |
| 2026-05-05 00:57 | 12.96965 | 110.79963 | 36908 ft | 511 kts | 33° |
| 2026-05-05 00:57 | 13.02839 | 110.84080 | 36906 ft | 511 kts | 33° |
| 2026-05-05 00:58 | 13.08727 | 110.88209 | 36904 ft | 511 kts | 33° |
| 2026-05-05 00:58 | 13.14610 | 110.92336 | 36907 ft | 511 kts | 33° |
| 2026-05-05 00:59 | 13.20462 | 110.96445 | 36906 ft | 511 kts | 33° |
| 2026-05-05 00:59 | 13.26386 | 111.00607 | 36906 ft | 512 kts | 33° |
| 2026-05-05 01:00 | 13.32252 | 111.04730 | 36903 ft | 513 kts | 32° |
| 2026-05-05 01:00 | 13.38187 | 111.08904 | 36907 ft | 513 kts | 32° |
| 2026-05-05 01:01 | 13.44063 | 111.13039 | 36906 ft | 513 kts | 32° |
| 2026-05-05 01:01 | 13.49971 | 111.17200 | 36905 ft | 513 kts | 32° |
| 2026-05-05 01:02 | 13.55867 | 111.21355 | 36906 ft | 514 kts | 32° |
| 2026-05-05 01:02 | 13.61790 | 111.25530 | 36906 ft | 514 kts | 32° |
| 2026-05-05 01:03 | 13.67674 | 111.29682 | 36904 ft | 513 kts | 32° |
| 2026-05-05 01:03 | 13.73580 | 111.33851 | 36906 ft | 514 kts | 32° |
| 2026-05-05 01:04 | 13.79506 | 111.38037 | 36907 ft | 515 kts | 32° |
| 2026-05-05 01:04 | 13.88360 | 111.44296 | 36915 ft | 515 kts | 32° |
| 2026-05-05 01:05 | 13.94294 | 111.48494 | 36926 ft | 515 kts | 32° |
| 2026-05-05 01:05 | 14.00202 | 111.52671 | 36925 ft | 515 kts | 32° |
| 2026-05-05 01:06 | 14.06137 | 111.56844 | 36926 ft | 514 kts | 32° |
| 2026-05-05 01:06 | 14.12048 | 111.61004 | 36930 ft | 515 kts | 32° |
| 2026-05-05 01:07 | 14.18000 | 111.65196 | 36930 ft | 514 kts | 32° |
| 2026-05-05 01:07 | 14.23900 | 111.69354 | 36924 ft | 515 kts | 32° |
| 2026-05-05 01:08 | 14.29848 | 111.73549 | 36923 ft | 516 kts | 32° |
| 2026-05-05 01:08 | 14.35802 | 111.77752 | 36925 ft | 516 kts | 32° |
| 2026-05-05 01:09 | 14.41727 | 111.81936 | 36925 ft | 516 kts | 32° |
| 2026-05-05 01:09 | 14.47671 | 111.86137 | 36925 ft | 516 kts | 32° |
| 2026-05-05 01:10 | 14.53597 | 111.90327 | 36924 ft | 516 kts | 32° |
| 2026-05-05 01:10 | 14.59508 | 111.94509 | 36924 ft | 516 kts | 32° |
| 2026-05-05 01:11 | 14.65428 | 111.98696 | 36925 ft | 516 kts | 32° |
| 2026-05-05 01:11 | 14.71389 | 112.02912 | 36925 ft | 516 kts | 32° |
| 2026-05-05 01:12 | 14.77325 | 112.07081 | 36926 ft | 515 kts | 32° |
| 2026-05-05 01:12 | 14.83281 | 112.11264 | 36925 ft | 516 kts | 32° |
| 2026-05-05 01:13 | 14.89218 | 112.15437 | 36926 ft | 515 kts | 32° |
| 2026-05-05 01:13 | 14.95162 | 112.19619 | 36925 ft | 516 kts | 31° |
| 2026-05-05 01:14 | 15.01104 | 112.23801 | 36926 ft | 517 kts | 31° |
| 2026-05-05 01:14 | 15.07064 | 112.28001 | 36926 ft | 517 kts | 31° |
| 2026-05-05 01:15 | 15.13036 | 112.32212 | 36930 ft | 517 kts | 31° |
| 2026-05-05 01:15 | 15.18996 | 112.36417 | 36930 ft | 517 kts | 31° |
| 2026-05-05 01:16 | 15.24972 | 112.40637 | 36932 ft | 516 kts | 31° |
| 2026-05-05 01:16 | 15.30929 | 112.44846 | 36934 ft | 517 kts | 31° |
| 2026-05-05 01:17 | 15.36884 | 112.49056 | 36936 ft | 518 kts | 31° |
| 2026-05-05 01:17 | 15.42822 | 112.53258 | 36938 ft | 518 kts | 31° |
| 2026-05-05 01:18 | 15.48787 | 112.57481 | 36939 ft | 518 kts | 31° |
| 2026-05-05 01:18 | 15.54758 | 112.61711 | 36938 ft | 519 kts | 31° |
| 2026-05-05 01:19 | 15.60726 | 112.65943 | 36936 ft | 519 kts | 31° |
| 2026-05-05 01:19 | 15.66711 | 112.70190 | 36937 ft | 519 kts | 31° |
| 2026-05-05 01:20 | 15.72679 | 112.74429 | 36939 ft | 518 kts | 31° |
| 2026-05-05 01:20 | 15.78641 | 112.78664 | 36938 ft | 521 kts | 31° |
| 2026-05-05 01:21 | 15.84636 | 112.82928 | 36942 ft | 519 kts | 31° |
| 2026-05-05 01:21 | 15.90632 | 112.87194 | 36941 ft | 520 kts | 31° |
| 2026-05-05 01:22 | 15.96600 | 112.91445 | 36944 ft | 520 kts | 31° |
| 2026-05-05 01:22 | 16.02588 | 112.95712 | 36934 ft | 520 kts | 31° |
| 2026-05-05 01:23 | 16.08560 | 112.99972 | 36925 ft | 519 kts | 31° |
| 2026-05-05 01:23 | 16.14512 | 113.04220 | 36926 ft | 519 kts | 31° |
| 2026-05-05 01:24 | 16.20495 | 113.08493 | 36931 ft | 519 kts | 31° |
| 2026-05-05 01:24 | 16.26468 | 113.12762 | 36930 ft | 520 kts | 31° |
| 2026-05-05 01:25 | 16.32445 | 113.17038 | 36932 ft | 522 kts | 31° |
| 2026-05-05 01:25 | 16.38421 | 113.21317 | 36933 ft | 520 kts | 31° |
| 2026-05-05 01:26 | 16.44421 | 113.25616 | 36933 ft | 520 kts | 31° |
| 2026-05-05 01:26 | 16.50393 | 113.29896 | 36932 ft | 523 kts | 31° |
| 2026-05-05 01:27 | 16.56381 | 113.34193 | 36932 ft | 521 kts | 31° |
| 2026-05-05 01:27 | 16.62368 | 113.38493 | 36931 ft | 521 kts | 31° |
| 2026-05-05 01:28 | 16.68343 | 113.42786 | 36929 ft | 522 kts | 32° |
| 2026-05-05 01:28 | 16.74351 | 113.47109 | 36927 ft | 522 kts | 31° |
| 2026-05-05 01:29 | 16.80345 | 113.51422 | 36932 ft | 521 kts | 31° |
| 2026-05-05 01:29 | 16.86307 | 113.55716 | 36930 ft | 524 kts | 31° |
| 2026-05-05 01:30 | 16.92323 | 113.60054 | 36929 ft | 521 kts | 31° |
| 2026-05-05 01:30 | 16.98303 | 113.64368 | 36929 ft | 521 kts | 31° |
| 2026-05-05 01:31 | 17.04299 | 113.68695 | 36923 ft | 524 kts | 31° |
| 2026-05-05 01:31 | 17.10288 | 113.72961 | 36927 ft | 522 kts | 31° |
| 2026-05-05 01:32 | 17.16301 | 113.77241 | 36932 ft | 522 kts | 31° |
| 2026-05-05 01:32 | 17.22324 | 113.81534 | 36933 ft | 521 kts | 31° |
| 2026-05-05 01:33 | 17.28335 | 113.85822 | 36932 ft | 522 kts | 31° |
| 2026-05-05 01:33 | 17.34362 | 113.90127 | 36934 ft | 521 kts | 31° |
| 2026-05-05 01:34 | 17.40383 | 113.94430 | 36933 ft | 523 kts | 31° |
| 2026-05-05 01:34 | 17.46382 | 113.98723 | 36940 ft | 522 kts | 31° |
| 2026-05-05 01:35 | 17.52406 | 114.03035 | 36947 ft | 524 kts | 31° |
| 2026-05-05 01:35 | 17.58436 | 114.07357 | 36948 ft | 523 kts | 31° |
| 2026-05-05 01:36 | 17.64444 | 114.11665 | 36948 ft | 523 kts | 31° |
| 2026-05-05 01:36 | 17.70480 | 114.15998 | 36944 ft | 523 kts | 31° |
| 2026-05-05 01:37 | 17.76474 | 114.20304 | 36947 ft | 524 kts | 31° |
| 2026-05-05 01:37 | 17.82526 | 114.24655 | 36949 ft | 523 kts | 31° |
| 2026-05-05 01:38 | 17.88541 | 114.28984 | 36948 ft | 523 kts | 31° |
| 2026-05-05 01:38 | 17.94581 | 114.33334 | 36946 ft | 524 kts | 31° |
| 2026-05-05 01:39 | 18.00634 | 114.37696 | 36951 ft | 527 kts | 31° |
| 2026-05-05 01:39 | 18.06630 | 114.42023 | 36948 ft | 524 kts | 31° |
| 2026-05-05 01:40 | 18.12679 | 114.46389 | 36952 ft | 528 kts | 30° |
| 2026-05-05 01:40 | 18.18723 | 114.50758 | 36953 ft | 525 kts | 31° |
| 2026-05-05 01:41 | 18.24794 | 114.55156 | 36947 ft | 525 kts | 31° |
| 2026-05-05 01:41 | 18.30726 | 114.59690 | 36951 ft | 529 kts | 32° |
| 2026-05-05 01:42 | 18.36651 | 114.64244 | 36952 ft | 527 kts | 32° |
| 2026-05-05 01:42 | 18.42599 | 114.68812 | 36942 ft | 528 kts | 32° |
| 2026-05-05 01:43 | 18.48521 | 114.73360 | 36942 ft | 528 kts | 32° |
| 2026-05-05 01:43 | 18.54490 | 114.77943 | 36943 ft | 527 kts | 32° |
| 2026-05-05 01:44 | 18.60429 | 114.82508 | 36944 ft | 528 kts | 32° |
| 2026-05-05 01:44 | 18.66382 | 114.87086 | 36944 ft | 528 kts | 32° |
| 2026-05-05 01:45 | 18.72343 | 114.91674 | 36943 ft | 530 kts | 32° |
| 2026-05-05 01:45 | 18.78295 | 114.96259 | 36944 ft | 528 kts | 32° |
| 2026-05-05 01:46 | 18.84225 | 115.00831 | 36944 ft | 529 kts | 32° |
| 2026-05-05 01:46 | 18.90184 | 115.05429 | 36945 ft | 530 kts | 32° |
| 2026-05-05 01:47 | 18.96125 | 115.10017 | 36946 ft | 531 kts | 32° |
| 2026-05-05 01:47 | 19.02062 | 115.14607 | 36946 ft | 530 kts | 32° |
| 2026-05-05 01:48 | 19.08078 | 115.19262 | 36950 ft | 532 kts | 32° |
| 2026-05-05 01:48 | 19.14001 | 115.23850 | 36958 ft | 530 kts | 32° |
| 2026-05-05 01:49 | 19.19946 | 115.28458 | 36965 ft | 529 kts | 32° |
| 2026-05-05 01:49 | 19.25866 | 115.33051 | 36967 ft | 528 kts | 32° |
| 2026-05-05 01:50 | 19.31809 | 115.37666 | 36968 ft | 528 kts | 32° |
| 2026-05-05 01:50 | 19.37768 | 115.42297 | 36967 ft | 530 kts | 32° |
| 2026-05-05 01:51 | 19.43697 | 115.46911 | 36972 ft | 531 kts | 32° |
| 2026-05-05 01:51 | 19.49648 | 115.51546 | 36969 ft | 529 kts | 32° |
| 2026-05-05 01:52 | 19.55544 | 115.56141 | 36967 ft | 529 kts | 32° |
| 2026-05-05 01:52 | 19.61478 | 115.60770 | 36971 ft | 530 kts | 32° |
| 2026-05-05 01:53 | 19.67421 | 115.65411 | 36971 ft | 529 kts | 32° |
| 2026-05-05 01:53 | 19.73343 | 115.70040 | 36963 ft | 531 kts | 33° |
| 2026-05-05 01:54 | 19.79337 | 115.74730 | 36963 ft | 531 kts | 32° |
| 2026-05-05 01:54 | 19.85271 | 115.79378 | 36961 ft | 530 kts | 33° |
| 2026-05-05 01:55 | 19.91174 | 115.84004 | 36961 ft | 531 kts | 33° |
| 2026-05-05 01:55 | 19.97140 | 115.88686 | 36963 ft | 530 kts | 33° |
| 2026-05-05 01:56 | 20.03050 | 115.93327 | 36965 ft | 531 kts | 33° |
| 2026-05-05 01:56 | 20.09015 | 115.98016 | 36972 ft | 531 kts | 33° |
| 2026-05-05 01:57 | 20.14988 | 116.02717 | 36972 ft | 532 kts | 33° |
| 2026-05-05 01:57 | 20.20958 | 116.07420 | 36973 ft | 531 kts | 33° |
| 2026-05-05 01:58 | 20.26886 | 116.12093 | 36976 ft | 533 kts | 33° |
| 2026-05-05 01:58 | 20.32875 | 116.16820 | 36978 ft | 531 kts | 33° |
| 2026-05-05 01:59 | 20.38802 | 116.21503 | 36980 ft | 531 kts | 33° |
| 2026-05-05 01:59 | 20.44752 | 116.26208 | 36985 ft | 531 kts | 33° |
| 2026-05-05 02:00 | 20.50678 | 116.30898 | 36992 ft | 532 kts | 33° |
| 2026-05-05 02:00 | 20.56640 | 116.35621 | 36991 ft | 534 kts | 33° |
| 2026-05-05 02:01 | 20.62596 | 116.40345 | 36991 ft | 533 kts | 33° |
| 2026-05-05 02:01 | 20.68578 | 116.45094 | 36997 ft | 533 kts | 33° |
| 2026-05-05 02:02 | 20.74534 | 116.49828 | 37001 ft | 532 kts | 32° |
| 2026-05-05 02:02 | 20.80508 | 116.54580 | 37008 ft | 533 kts | 33° |
| 2026-05-05 02:03 | 20.86470 | 116.59328 | 37007 ft | 535 kts | 33° |
| 2026-05-05 02:03 | 20.92442 | 116.64088 | 37010 ft | 533 kts | 33° |
| 2026-05-05 02:04 | 20.98372 | 116.68820 | 36998 ft | 535 kts | 33° |
| 2026-05-05 02:04 | 21.04340 | 116.73586 | 36993 ft | 534 kts | 33° |
| 2026-05-05 02:05 | 21.10303 | 116.78355 | 36990 ft | 533 kts | 33° |
| 2026-05-05 02:05 | 21.16292 | 116.83148 | 36992 ft | 534 kts | 33° |
| 2026-05-05 02:06 | 21.22221 | 116.87898 | 36992 ft | 536 kts | 33° |
| 2026-05-05 02:06 | 21.28200 | 116.92694 | 36994 ft | 535 kts | 33° |
| 2026-05-05 02:07 | 21.34182 | 116.97497 | 36992 ft | 535 kts | 33° |
| 2026-05-05 02:07 | 21.40160 | 117.02302 | 36997 ft | 535 kts | 33° |
| 2026-05-05 02:08 | 21.46111 | 117.07089 | 36996 ft | 536 kts | 33° |
| 2026-05-05 02:08 | 21.52090 | 117.11905 | 37000 ft | 536 kts | 32° |
| 2026-05-05 02:09 | 21.58072 | 117.16727 | 37002 ft | 536 kts | 32° |
| 2026-05-05 02:09 | 21.64052 | 117.21555 | 37004 ft | 538 kts | 33° |
| 2026-05-05 02:10 | 21.70036 | 117.26389 | 37004 ft | 538 kts | 33° |
| 2026-05-05 02:10 | 21.75988 | 117.31203 | 37006 ft | 537 kts | 32° |
| 2026-05-05 02:11 | 21.81973 | 117.36049 | 37007 ft | 536 kts | 32° |
| 2026-05-05 02:11 | 21.87932 | 117.40879 | 37011 ft | 538 kts | 32° |
| 2026-05-05 02:12 | 21.96823 | 117.48258 | 37014 ft | 542 kts | 38° |
| 2026-05-05 02:13 | 22.01715 | 117.54630 | 37019 ft | 553 kts | 54° |
| 2026-05-05 02:13 | 22.05777 | 117.61676 | 37017 ft | 554 kts | 55° |
| 2026-05-05 02:14 | 22.09782 | 117.68714 | 36997 ft | 553 kts | 56° |
| 2026-05-05 02:14 | 22.13817 | 117.75824 | 37008 ft | 553 kts | 56° |
| 2026-05-05 02:15 | 22.17831 | 117.82912 | 37009 ft | 553 kts | 55° |
| 2026-05-05 02:15 | 22.21817 | 117.89963 | 37012 ft | 554 kts | 56° |
| 2026-05-05 02:16 | 22.25841 | 117.97091 | 37017 ft | 555 kts | 56° |
| 2026-05-05 02:16 | 22.29892 | 118.04189 | 37018 ft | 554 kts | 54° |
| 2026-05-05 02:17 | 22.33979 | 118.11175 | 37023 ft | 554 kts | 54° |
| 2026-05-05 02:17 | 22.38106 | 118.18243 | 37026 ft | 554 kts | 54° |
| 2026-05-05 02:18 | 22.42205 | 118.25335 | 37025 ft | 555 kts | 55° |
| 2026-05-05 02:18 | 22.46222 | 118.32432 | 37019 ft | 555 kts | 55° |
| 2026-05-05 02:19 | 22.50251 | 118.39558 | 37025 ft | 556 kts | 55° |
| 2026-05-05 02:19 | 22.54259 | 118.46654 | 37028 ft | 557 kts | 55° |
| 2026-05-05 02:20 | 22.58286 | 118.53780 | 37032 ft | 556 kts | 55° |
| 2026-05-05 02:20 | 22.62343 | 118.60896 | 37036 ft | 557 kts | 55° |
| 2026-05-05 02:21 | 22.66416 | 118.68050 | 37014 ft | 557 kts | 55° |
| 2026-05-05 02:21 | 22.70464 | 118.75172 | 37019 ft | 557 kts | 55° |
| 2026-05-05 02:22 | 22.74539 | 118.82349 | 37017 ft | 558 kts | 55° |
| 2026-05-05 02:22 | 22.78586 | 118.89490 | 37018 ft | 559 kts | 55° |
| 2026-05-05 02:23 | 22.82646 | 118.96663 | 37013 ft | 559 kts | 56° |
| 2026-05-05 02:23 | 22.86695 | 119.03826 | 37023 ft | 560 kts | 55° |
| 2026-05-05 02:24 | 22.90752 | 119.11017 | 37020 ft | 559 kts | 55° |
| 2026-05-05 02:24 | 22.94811 | 119.18218 | 37017 ft | 559 kts | 55° |
| 2026-05-05 02:25 | 22.98849 | 119.25391 | 37021 ft | 559 kts | 55° |
| 2026-05-05 02:25 | 23.02897 | 119.32595 | 37021 ft | 560 kts | 55° |
| 2026-05-05 02:26 | 23.06948 | 119.39812 | 37012 ft | 561 kts | 55° |
| 2026-05-05 02:26 | 23.11022 | 119.47082 | 37021 ft | 562 kts | 55° |
| 2026-05-05 02:27 | 23.15129 | 119.54250 | 37025 ft | 559 kts | 50° |
| 2026-05-05 02:27 | 23.20408 | 119.60343 | 37021 ft | 548 kts | 33° |
| 2026-05-05 02:28 | 23.26771 | 119.64799 | 37029 ft | 540 kts | 24° |
| 2026-05-05 02:28 | 23.33290 | 119.68899 | 37015 ft | 541 kts | 25° |
| 2026-05-05 02:29 | 23.39772 | 119.72983 | 37014 ft | 529 kts | 24° |
| 2026-05-05 02:29 | 23.42895 | 119.74958 | 37014 ft | 512 kts | 24° |
| 2026-05-05 02:29 | 23.45960 | 119.76895 | 37023 ft | 502 kts | 24° |
| 2026-05-05 02:30 | 23.51946 | 119.80815 | 36641 ft | 501 kts | 26° |
| 2026-05-05 02:30 | 23.54890 | 119.82854 | 35534 ft | 508 kts | 26° |
| 2026-05-05 02:30 | 23.57915 | 119.84946 | 34438 ft | 514 kts | 26° |
| 2026-05-05 02:30 | 23.60901 | 119.87013 | 33501 ft | 516 kts | 26° |
| 2026-05-05 02:31 | 23.63966 | 119.89132 | 32569 ft | 518 kts | 26° |
| 2026-05-05 02:31 | 23.67010 | 119.91236 | 31664 ft | 522 kts | 26° |
| 2026-05-05 02:31 | 23.70072 | 119.93352 | 30725 ft | 525 kts | 26° |
| 2026-05-05 02:31 | 23.73142 | 119.95476 | 30146 ft | 520 kts | 26° |
| 2026-05-05 02:32 | 23.76181 | 119.97580 | 29638 ft | 515 kts | 26° |
| 2026-05-05 02:32 | 23.79179 | 119.99654 | 29064 ft | 511 kts | 26° |
| 2026-05-05 02:32 | 23.82169 | 120.01723 | 28463 ft | 508 kts | 26° |
| 2026-05-05 02:32 | 23.85178 | 120.03806 | 27848 ft | 505 kts | 27° |
| 2026-05-05 02:33 | 23.88128 | 120.05849 | 27247 ft | 503 kts | 27° |
| 2026-05-05 02:33 | 23.91061 | 120.07880 | 26661 ft | 500 kts | 27° |
| 2026-05-05 02:33 | 23.93976 | 120.09901 | 26045 ft | 498 kts | 28° |
| 2026-05-05 02:33 | 23.96919 | 120.11941 | 25432 ft | 495 kts | 28° |
| 2026-05-05 02:34 | 23.99824 | 120.13957 | 24818 ft | 493 kts | 28° |
| 2026-05-05 02:34 | 24.02685 | 120.15942 | 24204 ft | 491 kts | 28° |
| 2026-05-05 02:34 | 24.05585 | 120.17955 | 23598 ft | 488 kts | 29° |
| 2026-05-05 02:34 | 24.08411 | 120.19919 | 22990 ft | 486 kts | 29° |
| 2026-05-05 02:35 | 24.11264 | 120.21902 | 22366 ft | 484 kts | 30° |
| 2026-05-05 02:35 | 24.14086 | 120.23865 | 21755 ft | 482 kts | 30° |
| 2026-05-05 02:35 | 24.16920 | 120.25837 | 21123 ft | 480 kts | 29° |
| 2026-05-05 02:35 | 24.19708 | 120.27779 | 20369 ft | 473 kts | 30° |
| 2026-05-05 02:36 | 24.22452 | 120.29694 | 19816 ft | 456 kts | 29° |
| 2026-05-05 02:36 | 24.25098 | 120.31538 | 19355 ft | 445 kts | 29° |
| 2026-05-05 02:36 | 24.27704 | 120.33355 | 18702 ft | 446 kts | 29° |
| 2026-05-05 02:36 | 24.30312 | 120.35174 | 18093 ft | 446 kts | 29° |
| 2026-05-05 02:37 | 24.32930 | 120.37000 | 17450 ft | 445 kts | 30° |
| 2026-05-05 02:37 | 24.35518 | 120.38808 | 16758 ft | 437 kts | 29° |
| 2026-05-05 02:37 | 24.38054 | 120.40582 | 16245 ft | 419 kts | 29° |
| 2026-05-05 02:37 | 24.40432 | 120.42248 | 15919 ft | 399 kts | 29° |
| 2026-05-05 02:38 | 24.42707 | 120.43841 | 15685 ft | 378 kts | 29° |
| 2026-05-05 02:38 | 24.44882 | 120.45363 | 15468 ft | 359 kts | 29° |
| 2026-05-05 02:38 | 24.46945 | 120.46808 | 15278 ft | 342 kts | 28° |
| 2026-05-05 02:38 | 24.48915 | 120.48186 | 15061 ft | 332 kts | 28° |
| 2026-05-05 02:39 | 24.50843 | 120.49533 | 14796 ft | 329 kts | 28° |
| 2026-05-05 02:39 | 24.52778 | 120.50887 | 14492 ft | 327 kts | 28° |
| 2026-05-05 02:39 | 24.54677 | 120.52216 | 14193 ft | 325 kts | 28° |
| 2026-05-05 02:39 | 24.56600 | 120.53565 | 13880 ft | 323 kts | 28° |
| 2026-05-05 02:40 | 24.58484 | 120.54887 | 13600 ft | 321 kts | 28° |
| 2026-05-05 02:40 | 24.60364 | 120.56206 | 13314 ft | 319 kts | 28° |
| 2026-05-05 02:40 | 24.62206 | 120.57499 | 13041 ft | 317 kts | 28° |
| 2026-05-05 02:40 | 24.64076 | 120.58812 | 12740 ft | 315 kts | 28° |
| 2026-05-05 02:41 | 24.65915 | 120.60104 | 12467 ft | 313 kts | 28° |
| 2026-05-05 02:41 | 24.67703 | 120.61462 | 12192 ft | 314 kts | 35° |
| 2026-05-05 02:41 | 24.69363 | 120.63036 | 11902 ft | 313 kts | 38° |
| 2026-05-05 02:41 | 24.70986 | 120.64644 | 11632 ft | 312 kts | 39° |
| 2026-05-05 02:42 | 24.72583 | 120.66224 | 11341 ft | 310 kts | 39° |
| 2026-05-05 02:42 | 24.74189 | 120.67806 | 11045 ft | 308 kts | 39° |
| 2026-05-05 02:42 | 24.75767 | 120.69359 | 10752 ft | 306 kts | 39° |
| 2026-05-05 02:42 | 24.77362 | 120.70928 | 10480 ft | 304 kts | 39° |
| 2026-05-05 02:43 | 24.78924 | 120.72464 | 10202 ft | 302 kts | 39° |
| 2026-05-05 02:43 | 24.80492 | 120.74007 | 9936 ft | 299 kts | 39° |
| 2026-05-05 02:43 | 24.82035 | 120.75526 | 9658 ft | 297 kts | 39° |
| 2026-05-05 02:43 | 24.83582 | 120.77050 | 9385 ft | 296 kts | 39° |
| 2026-05-05 02:44 | 24.85119 | 120.78563 | 9097 ft | 295 kts | 39° |
| 2026-05-05 02:44 | 24.86634 | 120.80057 | 8820 ft | 294 kts | 40° |
| 2026-05-05 02:44 | 24.88165 | 120.81566 | 8501 ft | 293 kts | 40° |
| 2026-05-05 02:44 | 24.89679 | 120.83058 | 8133 ft | 296 kts | 40° |
| 2026-05-05 02:45 | 24.91078 | 120.84765 | 7435 ft | 304 kts | 61° |
| 2026-05-05 02:45 | 24.91730 | 120.86945 | 6731 ft | 304 kts | 88° |
| 2026-05-05 02:45 | 24.91743 | 120.89256 | 6044 ft | 304 kts | 95° |
| 2026-05-05 02:45 | 24.91619 | 120.91564 | 5351 ft | 305 kts | 96° |
| 2026-05-05 02:46 | 24.91489 | 120.93882 | 4646 ft | 305 kts | 95° |
| 2026-05-05 02:46 | 24.91366 | 120.96201 | 4143 ft | 297 kts | 94° |
| 2026-05-05 02:46 | 24.91254 | 120.98412 | 4033 ft | 276 kts | 94° |
| 2026-05-05 02:46 | 24.91152 | 121.00450 | 4017 ft | 263 kts | 94° |
| 2026-05-05 02:47 | 24.91174 | 121.02371 | 4003 ft | 244 kts | 77° |
| 2026-05-05 02:47 | 24.91826 | 121.04015 | 3975 ft | 228 kts | 57° |
| 2026-05-05 02:47 | 24.92748 | 121.05396 | 3807 ft | 215 kts | 51° |
| 2026-05-05 02:47 | 24.93652 | 121.06645 | 3634 ft | 201 kts | 51° |
| 2026-05-05 02:48 | 24.94513 | 121.07809 | 3449 ft | 193 kts | 49° |
| 2026-05-05 02:48 | 24.95378 | 121.08907 | 3212 ft | 184 kts | 48° |
| 2026-05-05 02:48 | 24.96200 | 121.09929 | 2994 ft | 172 kts | 47° |
| 2026-05-05 02:48 | 24.96969 | 121.10885 | 2793 ft | 164 kts | 47° |
| 2026-05-05 02:49 | 24.97722 | 121.11827 | 2589 ft | 160 kts | 47° |
| 2026-05-05 02:49 | 24.98438 | 121.12727 | 2388 ft | 156 kts | 49° |
| 2026-05-05 02:49 | 24.99155 | 121.13628 | 2184 ft | 152 kts | 50° |
| 2026-05-05 02:49 | 24.99836 | 121.14487 | 1992 ft | 152 kts | 50° |
| 2026-05-05 02:50 | 25.00528 | 121.15359 | 1788 ft | 149 kts | 51° |
| 2026-05-05 02:50 | 25.01215 | 121.16225 | 1590 ft | 148 kts | 51° |
| 2026-05-05 02:50 | 25.01896 | 121.17084 | 1391 ft | 148 kts | 51° |
| 2026-05-05 02:50 | 25.02574 | 121.17939 | 1200 ft | 148 kts | 50° |
| 2026-05-05 02:51 | 25.03246 | 121.18786 | 1003 ft | 148 kts | 51° |
| 2026-05-05 02:51 | 25.03924 | 121.19642 | 800 ft | 148 kts | 51° |
| 2026-05-05 02:51 | 25.04607 | 121.20503 | 602 ft | 149 kts | 51° |
| 2026-05-05 02:51 | 25.05288 | 121.21362 | 404 ft | 147 kts | 50° |
| 2026-05-05 02:52 | 25.05966 | 121.22205 | 194 ft | 146 kts | 51° |
| 2026-05-05 02:52 | 25.06618 | 121.23028 | 123 ft | 133 kts | 49° |
| 2026-05-05 02:52 | 25.07015 | 121.23533 | 122 ft | 29 kts | 48° |
| 2026-05-05 02:52 | 25.07063 | 121.23587 | 122 ft | 3 kts | 42° |
| 2026-05-05 02:53 | 25.07103 | 121.23625 | 122 ft | 9 kts | 39° |
| 2026-05-05 02:53 | 25.07169 | 121.23671 | 122 ft | 12 kts | 30° |
| 2026-05-05 02:53 | 25.07253 | 121.23717 | 122 ft | 14 kts | 21° |